Las Peladas, Argentina
Current Conditions -  °F | °C
As of 2:38 AM on Thursday 23 Oct 2014 (Local Time) from SCAT Reporting Station
NA  
Wind Chill: 14°   Ceiling: NA
Heat Index: 14°   Visibility: 6mi
Dew Point: 11°   Wind: 5mph
Humidity: 82%   Direction: 60°ENE
Pressure: 30"   Gusts: NA
Location:  27.04°S, 68.09°W
Report Text: SCAT 230538Z AUTO 06004KT 340V150 9999 // ///008 14/11 Q1016
Loading
Personal Weather Stations






























Interactive Weather Map
Tropical Storm Tracking
New forecast layout! Learn more

10-Day Weather Forecast

Advertisements
Track Severe Weather on mobile